Trelew/Rawson, Argentina
Current Conditions -  °F | °C
As of 3:00 AM on Sunday 21 Dec 2014 (Local Time) from SAVC Reporting Station
Clear Clear  
Wind Chill:   Ceiling: Unl
Heat Index:   Visibility: 6mi
Dew Point:   Wind: 7mph
Humidity: 66%   Direction: 270°W
Pressure: 29.91"   Gusts: NA
Location:  43.2°S, 65.27°W
Report Text: SAVC 210600Z 27006KT CAVOK 09/03 Q1013
Loading
Personal Weather Stations






























Interactive Weather Map New forecast layout! Learn more

10-Day Weather Forecast

Advertisements
Track Severe Weather on mobile